Time;durP1;ratioP1;P1;durP2;ratioP2;P2;SDS_P1;SDS_P2;PMS_P1;PMS_P2;Temp;Humidity;BMP_temperature;BMP_pressure;BME280_temperature;BME280_humidity;BME280_pressure;Samples;Min_cycle;Max_cycle;Signal;HPM_P1;HPM_P2
2022/08/12 00:45:07;;;;;;;11.82;6.93;;;;;;;13.73;68.51;100911.06;4760281;30;20058;-78
2022/08/12 00:47:36;;;;;;;13.95;6.95;;;;;;;13.55;68.52;100884.09;4792218;30;20075;-80
2022/08/12 00:50:03;;;;;;;10.52;6.63;;;;;;;13.71;68.54;100907.56;4790653;30;20462;-82
2022/08/12 00:52:29;;;;;;;14.07;7.55;;;;;;;13.63;68.51;100898.88;4783591;29;20046;-83
2022/08/12 00:54:57;;;;;;;10.32;7.10;;;;;;;13.66;68.63;100901.47;4770333;30;20050;-81
2022/08/12 00:57:25;;;;;;;16.70;7.72;;;;;;;13.45;68.67;100871.94;4774175;29;20184;-84
2022/08/12 00:59:56;;;;;;;26.58;8.43;;;;;;;13.68;68.78;100907.56;4780835;30;20103;-81
2022/08/12 01:02:26;;;;;;;23.98;9.13;;;;;;;13.67;68.78;100911.94;4739646;30;20043;-84
2022/08/12 01:13:17;;;;;;;14.43;7.05;;;;;;;13.42;68.92;100905.91;4790088;29;20058;-84
2022/08/12 01:15:45;;;;;;;13.13;7.53;;;;;;;13.42;68.80;100910.28;4752615;30;20048;-80
2022/08/12 01:18:16;;;;;;;11.32;7.40;;;;;;;13.45;68.89;100913.75;4774536;30;20039;-80
2022/08/12 01:20:53;;;;;;;13.48;7.20;;;;;;;13.41;69.23;100906.78;4765167;30;20051;-83
2022/08/12 01:23:52;;;;;;;17.25;7.25;;;;;;;13.45;69.26;100925.97;4782026;30;20058;-85
2022/08/12 01:26:22;;;;;;;14.02;7.88;;;;;;;13.45;69.38;100923.38;4782606;29;20089;-82
2022/08/12 01:28:53;;;;;;;15.38;7.30;;;;;;;13.40;69.39;100915.47;4769676;30;20401;-84
2022/08/12 01:31:20;;;;;;;17.55;8.05;;;;;;;13.44;69.66;100919.00;4767216;30;20141;-83
2022/08/12 01:34:04;;;;;;;18.10;7.90;;;;;;;13.43;69.46;100928.56;4769858;30;20043;-83
2022/08/12 01:36:44;;;;;;;17.40;9.45;;;;;;;13.32;69.70;100912.03;4768285;30;20079;-80
2022/08/12 01:39:14;;;;;;;14.88;7.95;;;;;;;13.33;69.69;100925.09;4784208;30;20043;-83
2022/08/12 01:41:49;;;;;;;15.90;8.55;;;;;;;13.36;69.83;100927.69;4752908;30;20057;-83
2022/08/12 01:44:17;;;;;;;11.95;7.40;;;;;;;13.28;69.55;100924.22;4771823;30;21536;-80
2022/08/12 01:47:11;;;;;;;13.52;8.10;;;;;;;13.34;69.58;100937.28;4769902;30;20055;-82
2022/08/12 01:49:56;;;;;;;14.20;7.88;;;;;;;13.34;69.73;100934.66;4775526;30;20185;-78
2022/08/12 01:52:36;;;;;;;13.95;8.20;;;;;;;13.35;69.63;100936.41;4784023;30;20151;-80
2022/08/12 01:55:05;;;;;;;12.68;7.75;;;;;;;13.31;69.64;100929.44;4784488;30;20051;-82
2022/08/12 01:57:43;;;;;;;16.67;8.57;;;;;;;13.36;69.60;100934.66;4785086;29;20048;-85
2022/08/12 02:00:17;;;;;;;22.10;11.35;;;;;;;13.20;69.32;100912.94;4751452;30;20100;-81
2022/08/12 02:02:50;;;;;;;17.00;8.30;;;;;;;13.37;69.67;100933.78;4784158;30;20407;-83
2022/08/12 02:11:31;;;;;;;21.63;8.82;;;;;;;13.42;69.68;100933.81;4787276;30;20407;-81
2022/08/12 02:14:30;;;;;;;19.95;9.75;;;;;;;13.45;69.72;100937.28;4773008;30;20107;-79
2022/08/12 02:17:04;;;;;;;21.73;10.32;;;;;;;13.48;69.66;100939.00;4761197;30;20065;-81
2022/08/12 02:19:53;;;;;;;22.20;10.95;;;;;;;13.48;69.60;100944.25;4782038;30;20523;-82
2022/08/12 02:22:35;;;;;;;24.40;11.27;;;;;;;13.39;69.53;100924.19;4784441;30;20050;-84
2022/08/12 02:25:15;;;;;;;15.40;10.32;;;;;;;13.52;69.62;100946.88;4770595;30;20100;-85
2022/08/12 02:27:50;;;;;;;20.38;11.25;;;;;;;13.34;69.69;100908.53;4784356;30;20075;-83
2022/08/12 02:30:19;;;;;;;15.40;10.68;;;;;;;13.47;69.81;100924.19;4764786;30;20046;-79
2022/08/12 02:32:48;;;;;;;14.88;9.75;;;;;;;13.60;69.76;100944.22;4768238;30;20130;-82
2022/08/12 02:35:21;;;;;;;18.70;9.70;;;;;;;13.51;69.93;100925.94;4786702;30;20031;-82
2022/08/12 02:37:51;;;;;;;15.90;11.02;;;;;;;13.70;69.92;100945.91;4767133;29;20496;-80
2022/08/12 02:40:20;;;;;;;17.33;10.98;;;;;;;13.66;69.78;100928.53;4756773;30;20054;-82
2022/08/12 02:42:58;;;;;;;19.92;11.73;;;;;;;13.76;69.77;100928.47;4783141;30;20100;-82
2022/08/12 02:45:54;;;;;;;24.80;13.45;;;;;;;13.85;69.73;100945.00;4765971;30;20104;-81
2022/08/12 02:48:36;;;;;;;19.10;11.18;;;;;;;13.90;69.84;100944.09;4773567;30;20058;-81
2022/08/12 02:51:08;;;;;;;24.55;12.57;;;;;;;13.85;69.70;100929.28;4770735;30;20044;-82
2022/08/12 02:53:38;;;;;;;20.08;11.18;;;;;;;13.99;69.45;100942.31;4778126;30;20099;-79
2022/08/12 02:56:05;;;;;;;15.95;10.68;;;;;;;14.03;69.68;100937.94;4764231;30;20044;-82
2022/08/12 02:58:35;;;;;;;19.00;11.07;;;;;;;14.10;69.55;100950.13;4760574;30;20053;-83
2022/08/12 03:01:08;;;;;;;19.60;11.45;;;;;;;13.89;69.38;100892.66;4790022;30;20043;-82
2022/08/12 03:03:37;;;;;;;16.25;10.77;;;;;;;14.14;69.51;100928.28;4775043;30;20044;-82
2022/08/12 03:06:07;;;;;;;20.15;11.00;;;;;;;14.37;69.38;100947.34;4757848;30;20047;-83
2022/08/12 03:08:42;;;;;;;20.47;12.00;;;;;;;14.45;69.13;100946.41;4772335;30;20044;-81
2022/08/12 03:11:22;;;;;;;23.45;11.88;;;;;;;14.48;69.33;100932.44;4758766;30;20060;-80
2022/08/12 03:13:56;;;;;;;23.13;13.38;;;;;;;14.65;69.02;100940.19;4758233;30;20051;-81
2022/08/12 03:16:25;;;;;;;23.83;12.38;;;;;;;14.61;69.04;100912.28;4778845;30;20504;-81
2022/08/12 03:18:53;;;;;;;25.58;12.52;;;;;;;14.86;68.89;100938.31;4764846;30;20054;-83
2022/08/12 03:21:25;;;;;;;19.38;12.10;;;;;;;14.91;68.68;100939.09;4759678;30;20152;-82
2022/08/12 03:23:53;;;;;;;20.17;11.82;;;;;;;15.00;68.56;100933.78;4762292;30;20104;-81
2022/08/12 03:26:24;;;;;;;22.02;11.90;;;;;;;15.17;68.55;100938.00;4779612;30;20166;-83
2022/08/12 03:28:56;;;;;;;19.15;11.50;;;;;;;15.31;68.44;100937.88;4751861;30;20070;-81
2022/08/12 03:31:28;;;;;;;22.63;12.18;;;;;;;15.42;68.10;100935.13;4750339;30;20509;-78
2022/08/12 03:34:10;;;;;;;18.92;12.18;;;;;;;15.57;68.18;100931.47;4751161;30;20504;-81
2022/08/12 03:36:38;;;;;;;20.05;14.32;;;;;;;15.30;68.25;100863.59;4769591;30;20074;-81
2022/08/12 03:42:05;;;;;;;18.60;12.90;;;;;;;16.04;67.73;100927.41;4739843;30;20433;-79
2022/08/12 04:01:12;;;;;;;35.92;20.70;;;;;;;17.37;65.58;100921.75;4760037;30;20130;-82
2022/08/12 04:03:53;;;;;;;29.98;20.23;;;;;;;17.44;65.41;100883.03;4790381;30;20057;-82
2022/08/12 04:06:21;;;;;;;36.67;22.55;;;;;;;17.97;64.68;100926.69;4758521;30;20081;-82
2022/08/12 04:08:49;;;;;;;33.30;22.23;;;;;;;18.25;64.33;100934.88;4788027;30;20074;-81
2022/08/12 04:14:10;;;;;;;36.90;24.05;;;;;;;18.58;63.64;100903.38;4765071;30;20067;-80
2022/08/12 04:16:38;;;;;;;32.72;21.60;;;;;;;18.96;62.92;100927.06;4784429;30;20482;-80
2022/08/12 04:19:05;;;;;;;37.92;25.67;;;;;;;19.02;62.02;100912.84;4771694;30;20062;-80
2022/08/12 04:21:33;;;;;;;37.95;24.13;;;;;;;19.32;61.74;100916.44;4770151;30;20047;-81
2022/08/12 04:24:00;;;;;;;35.78;22.25;;;;;;;19.39;61.34;100899.53;4770534;30;20031;-80
2022/08/12 04:26:29;;;;;;;32.22;22.42;;;;;;;19.75;60.76;100924.03;4785436;30;20078;-81
2022/08/12 04:28:57;;;;;;;31.13;22.90;;;;;;;20.02;60.29;100927.66;4792994;30;20043;-84
2022/08/12 04:31:32;;;;;;;33.53;24.17;;;;;;;20.05;59.50;100900.28;4759167;30;20043;-83
2022/08/12 04:33:59;;;;;;;36.60;23.30;;;;;;;20.23;59.35;100899.72;4762194;30;20158;-81
2022/08/12 04:36:27;;;;;;;33.17;22.42;;;;;;;20.52;58.79;100913.78;4785782;30;20516;-82
2022/08/12 04:38:54;;;;;;;35.92;24.35;;;;;;;20.75;58.31;100912.09;4771454;30;20563;-78
2022/08/12 04:41:22;;;;;;;38.30;26.17;;;;;;;21.05;58.07;100922.59;4749285;30;20043;-81
2022/08/12 04:43:48;;;;;;;35.42;26.05;;;;;;;21.12;57.12;100894.13;4757165;30;20401;-80
2022/08/12 04:46:14;;;;;;;27.08;20.80;;;;;;;21.39;56.76;100915.25;4740804;30;20107;-80
2022/08/12 04:48:40;;;;;;;28.40;21.27;;;;;;;21.56;56.69;100914.63;4771209;30;20055;-79
2022/08/12 04:51:07;;;;;;;28.48;19.02;;;;;;;21.64;56.11;100913.44;4746426;30;20100;-81
2022/08/12 04:53:33;;;;;;;28.88;20.20;;;;;;;21.67;56.17;100885.97;4750240;30;20466;-80
2022/08/12 04:56:00;;;;;;;28.83;20.58;;;;;;;21.94;56.17;100899.97;4764568;30;20044;-79
2022/08/12 04:58:27;;;;;;;23.90;18.35;;;;;;;22.20;55.41;100906.00;4751886;30;20574;-80
2022/08/12 05:00:54;;;;;;;23.20;18.90;;;;;;;22.27;55.20;100890.72;4765290;30;20131;-80
2022/08/12 05:03:21;;;;;;;30.63;20.13;;;;;;;22.53;54.88;100902.94;4756065;30;20047;-79
2022/08/12 05:05:47;;;;;;;23.95;18.80;;;;;;;22.73;54.59;100908.34;4771884;30;20055;-81
2022/08/12 05:08:16;;;;;;;25.75;19.30;;;;;;;22.92;54.29;100909.28;4743687;30;20537;-81
2022/08/12 05:10:45;;;;;;;25.27;18.63;;;;;;;23.08;53.71;100909.44;4759704;30;20051;-81
2022/08/12 05:13:16;;;;;;;20.58;15.05;;;;;;;23.25;53.71;100905.25;4774126;30;20040;-79
2022/08/12 05:15:45;;;;;;;17.45;12.60;;;;;;;23.34;53.03;100891.53;4765391;30;20533;-81
2022/08/12 05:18:12;;;;;;;19.48;13.15;;;;;;;23.56;52.32;100904.72;4725950;30;20063;-80
2022/08/12 05:20:42;;;;;;;18.65;14.05;;;;;;;23.66;51.45;100872.41;4772212;30;20069;-80
2022/08/12 05:23:14;;;;;;;16.02;11.23;;;;;;;24.01;50.88;100899.13;4756009;30;20083;-81
2022/08/12 05:25:42;;;;;;;21.95;15.57;;;;;;;24.25;50.13;100905.06;4750016;30;20113;-82
2022/08/12 05:28:09;;;;;;;18.88;13.93;;;;;;;24.53;50.01;100901.03;4756862;30;20052;-81
2022/08/12 05:30:35;;;;;;;18.67;13.93;;;;;;;25.08;49.73;100899.16;4771760;30;20408;-81
2022/08/12 05:33:05;;;;;;;17.02;13.75;;;;;;;26.04;48.90;100902.00;4775269;30;20120;-80
2022/08/12 05:35:38;;;;;;;18.40;13.13;;;;;;;28.09;46.91;100889.72;4754082;30;20117;-80
2022/08/12 05:40:50;;;;;;;20.23;13.82;;;;;;;32.36;39.53;100867.13;4762078;30;20043;-81
2022/08/12 05:43:23;;;;;;;19.13;13.35;;;;;;;33.99;36.62;100865.63;4771489;30;20047;-82
2022/08/12 05:45:50;;;;;;;20.63;12.95;;;;;;;35.55;34.36;100874.41;4773259;30;20055;-82
2022/08/12 05:48:31;;;;;;;17.05;11.98;;;;;;;36.67;32.08;100830.75;4771854;30;20058;-85
2022/08/12 05:50:57;;;;;;;20.70;12.30;;;;;;;38.13;30.11;100859.59;4772365;30;20047;-82
2022/08/12 05:53:53;;;;;;;15.98;11.32;;;;;;;38.65;28.26;100808.59;4755366;30;20123;-83
2022/08/12 05:56:42;;;;;;;14.10;11.57;;;;;;;38.94;26.97;100853.41;4752764;30;20078;-82
2022/08/12 06:02:27;;;;;;;13.55;10.80;;;;;;;40.68;24.50;100804.06;4758276;30;20091;-84
2022/08/12 06:05:50;;;;;;;12.80;11.52;;;;;;;41.84;23.14;100859.81;4712331;30;20061;-85
2022/08/12 06:08:20;;;;;;;12.57;10.63;;;;;;;42.59;22.00;100860.28;4718688;30;20053;-81
2022/08/12 06:10:49;;;;;;;11.93;9.30;;;;;;;43.37;20.66;100865.78;4722827;30;20087;-80
2022/08/12 06:13:15;;;;;;;13.30;10.52;;;;;;;44.23;19.76;100851.41;4719748;30;20126;-81
2022/08/12 06:15:41;;;;;;;11.15;9.13;;;;;;;44.80;19.02;100855.53;4724321;30;20498;-80
2022/08/12 06:18:09;;;;;;;9.85;7.22;;;;;;;45.41;18.01;100856.16;4718131;30;20051;-80
2022/08/12 06:20:36;;;;;;;4.07;3.03;;;;;;;45.62;17.06;100838.50;4695923;30;20064;-82
2022/08/12 06:23:02;;;;;;;5.47;3.28;;;;;;;46.01;15.52;100861.25;4724222;30;20143;-80
2022/08/12 06:25:29;;;;;;;6.97;3.33;;;;;;;46.08;14.93;100865.91;4710544;30;20068;-81
2022/08/12 06:27:58;;;;;;;4.50;3.13;;;;;;;46.73;14.66;100867.41;4725619;30;20147;-80
2022/08/12 06:30:26;;;;;;;9.37;3.47;;;;;;;46.76;13.84;100865.03;4710377;30;20122;-79
2022/08/12 06:32:53;;;;;;;5.10;3.55;;;;;;;46.91;13.87;100863.81;4725476;30;20041;-82
2022/08/12 06:35:20;;;;;;;4.82;3.20;;;;;;;47.22;13.02;100856.47;4734916;30;20525;-81
2022/08/12 06:37:55;;;;;;;5.57;3.15;;;;;;;47.71;12.95;100861.09;4757297;30;20086;-81
2022/08/12 06:43:06;;;;;;;9.02;3.00;;;;;;;48.18;12.00;100858.41;4775723;30;20035;-81
2022/08/12 06:45:43;;;;;;;10.57;3.20;;;;;;;48.14;12.16;100834.28;4769486;30;20051;-82
2022/08/12 06:48:10;;;;;;;5.03;2.33;;;;;;;48.33;11.82;100832.28;4758894;30;20133;-83
2022/08/12 06:50:37;;;;;;;5.30;2.50;;;;;;;48.49;11.54;100831.53;4738940;30;20051;-84
2022/08/12 06:53:04;;;;;;;5.68;2.80;;;;;;;48.80;10.87;100814.81;4739893;30;20051;-84
2022/08/12 06:55:31;;;;;;;4.35;2.28;;;;;;;49.04;10.97;100842.31;4741297;30;20079;-81
2022/08/12 06:58:19;;;;;;;9.23;2.65;;;;;;;49.21;10.41;100828.59;4743438;30;20074;-83
2022/08/12 07:00:48;;;;;;;4.07;2.35;;;;;;;49.90;9.89;100844.22;4753574;30;20552;-84
2022/08/12 07:03:24;;;;;;;2.90;2.17;;;;;;;49.96;9.94;100840.44;4755902;30;20064;-79
2022/08/12 07:05:51;;;;;;;5.55;2.90;;;;;;;50.32;9.36;100862.31;4751741;30;20054;-80
2022/08/12 07:08:18;;;;;;;5.18;2.50;;;;;;;50.40;9.34;100825.88;4732253;30;20072;-84
2022/08/12 07:10:58;;;;;;;5.35;2.70;;;;;;;50.63;9.02;100824.84;4768434;30;20039;-83
2022/08/12 07:13:37;;;;;;;3.60;2.70;;;;;;;51.26;8.63;100820.03;4737639;30;20523;-82
2022/08/12 07:16:04;;;;;;;;;;;;;;;51.50;8.85;100849.06;4752115;30;20079;-83
2022/08/12 07:18:34;;;;;;;4.50;2.55;;;;;;;50.81;9.35;100844.97;4751599;30;19926;-82
2022/08/12 07:21:02;;;;;;;3.88;2.42;;;;;;;50.78;9.32;100842.72;4747474;30;20078;-81
2022/08/12 07:23:35;;;;;;;4.25;2.55;;;;;;;51.25;8.87;100815.56;4758887;30;20147;-84
2022/08/12 07:26:05;;;;;;;5.32;2.45;;;;;;;51.95;8.86;100835.88;4771353;30;20097;-82
2022/08/12 07:28:34;;;;;;;4.00;2.58;;;;;;;52.53;8.56;100837.03;4768692;30;20055;-80
2022/08/12 07:31:06;;;;;;;5.15;2.95;;;;;;;52.72;8.52;100845.75;4759436;30;20051;-79
2022/08/12 07:33:33;;;;;;;5.78;3.10;;;;;;;52.60;7.79;100842.38;4764559;30;20059;-78
2022/08/12 07:36:01;;;;;;;2.90;2.67;;;;;;;52.40;8.26;100849.47;4766382;30;20494;-79
2022/08/12 07:38:34;;;;;;;5.57;2.80;;;;;;;52.80;8.21;100836.88;4740595;30;20055;-81
2022/08/12 07:41:19;;;;;;;3.55;2.88;;;;;;;53.64;7.40;100846.25;4763253;30;20058;-81
2022/08/12 07:43:52;;;;;;;5.00;3.10;;;;;;;53.95;7.29;100840.69;4775656;30;20050;-81
2022/08/12 07:46:22;;;;;;;3.05;2.35;;;;;;;53.64;6.74;100840.69;4781466;30;20048;-79
2022/08/12 07:48:53;;;;;;;2.60;2.22;;;;;;;53.94;6.60;100830.69;4780135;30;20028;-80
2022/08/12 07:51:21;;;;;;;2.85;2.58;;;;;;;54.72;6.37;100829.31;4780007;30;20044;-79
2022/08/12 07:53:48;;;;;;;5.25;3.03;;;;;;;55.38;6.04;100837.56;4740650;30;20035;-79
2022/08/12 07:56:17;;;;;;;3.45;2.72;;;;;;;54.71;6.20;100833.22;4784917;30;20067;-80
2022/08/12 07:58:43;;;;;;;6.03;3.13;;;;;;;54.20;6.63;100832.25;4781837;30;20056;-79
2022/08/12 08:01:14;;;;;;;4.88;3.30;;;;;;;53.54;6.84;100833.16;4780123;30;20060;-81
2022/08/12 08:06:30;;;;;;;4.43;2.90;;;;;;;53.36;6.66;100837.31;4753294;30;20085;-81
2022/08/12 08:09:01;;;;;;;6.32;3.55;;;;;;;53.60;6.77;100827.34;4772621;30;20043;-80
2022/08/12 08:14:12;;;;;;;3.95;3.17;;;;;;;54.12;6.79;100837.56;4761150;30;20044;-79
2022/08/12 08:16:41;;;;;;;4.95;3.50;;;;;;;53.65;6.67;100823.72;4748613;30;20105;-79
2022/08/12 08:19:11;;;;;;;5.40;3.58;;;;;;;53.67;6.97;100820.66;4734655;30;20048;-79
2022/08/12 08:21:37;;;;;;;4.18;3.78;;;;;;;54.44;6.77;100820.50;4746582;30;20204;-79
2022/08/12 08:24:16;;;;;;;5.90;3.75;;;;;;;55.03;6.13;100818.00;4760349;30;20043;-80
2022/08/12 08:26:46;;;;;;;3.60;3.30;;;;;;;54.86;6.25;100823.94;4745256;30;20058;-80
2022/08/12 08:29:12;;;;;;;7.28;3.35;;;;;;;55.05;6.16;100814.91;4744507;30;20040;-80
2022/08/12 08:31:44;;;;;;;5.80;3.75;;;;;;;54.92;6.13;100816.38;4748098;30;20052;-79
2022/08/12 08:34:11;;;;;;;5.43;3.90;;;;;;;54.12;6.44;100820.88;4760421;30;20048;-80
2022/08/12 08:36:40;;;;;;;8.52;3.63;;;;;;;53.69;6.80;100807.31;4761050;30;20568;-78
2022/08/12 08:39:10;;;;;;;;;;;;;;;52.83;7.40;100813.31;4745355;30;20147;-80
2022/08/12 08:44:21;;;;;;;3.67;3.38;;;;;;;52.44;7.09;100806.22;4760527;30;20047;-79
2022/08/12 08:46:49;;;;;;;5.63;3.60;;;;;;;53.17;6.89;100810.03;4744924;30;20070;-80
2022/08/12 08:49:16;;;;;;;5.35;3.55;;;;;;;53.83;7.01;100804.81;4762272;30;20035;-80
2022/08/12 08:51:44;;;;;;;4.70;3.15;;;;;;;54.32;6.47;100800.53;4759443;30;20055;-80
2022/08/12 08:54:12;;;;;;;5.88;3.50;;;;;;;54.35;6.02;100784.09;4731981;30;20146;-80
2022/08/12 08:56:48;;;;;;;5.90;3.20;;;;;;;55.12;6.06;100809.00;4713529;30;20079;-82
2022/08/12 08:59:19;;;;;;;3.85;3.20;;;;;;;55.58;5.76;100785.56;4729076;30;20097;-80
2022/08/12 09:01:46;;;;;;;5.65;3.58;;;;;;;56.02;5.91;100792.91;4715246;30;20125;-79
2022/08/12 09:04:12;;;;;;;7.25;2.88;;;;;;;56.50;5.33;100791.22;4770617;30;20043;-81
2022/08/12 09:06:41;;;;;;;4.85;3.20;;;;;;;56.09;6.00;100764.63;4741590;30;20059;-81
2022/08/12 09:09:09;;;;;;;5.55;3.45;;;;;;;55.52;6.15;100799.50;4745361;30;20051;-80
2022/08/12 09:14:22;;;;;;;6.40;3.60;;;;;;;54.89;5.97;100783.53;4729856;30;20048;-81
2022/08/12 09:16:49;;;;;;;4.93;3.60;;;;;;;54.47;5.88;100792.09;4728840;30;20048;-82
2022/08/12 09:19:17;;;;;;;4.35;3.50;;;;;;;53.81;6.22;100796.72;4746600;30;20394;-84
2022/08/12 09:21:46;;;;;;;8.05;3.38;;;;;;;53.25;6.32;100787.28;4742213;30;20134;-81
2022/08/12 09:24:17;;;;;;;6.10;3.92;;;;;;;53.19;6.86;100788.38;4745725;30;20043;-82
2022/08/12 09:26:47;;;;;;;3.67;3.10;;;;;;;53.11;6.19;100786.13;4747207;30;20153;-79
2022/08/12 09:29:14;;;;;;;4.10;3.17;;;;;;;53.63;6.20;100787.06;4727761;30;20158;-80
2022/08/12 09:31:41;;;;;;;8.35;3.30;;;;;;;54.34;6.05;100781.59;4732275;30;20055;-82
2022/08/12 09:34:09;;;;;;;5.85;3.63;;;;;;;54.40;6.01;100772.13;4745462;30;20073;-82
2022/08/12 09:36:37;;;;;;;;;;;;;;;54.59;5.73;100782.59;4760818;30;20093;-81
2022/08/12 09:39:09;;;;;;;3.70;3.40;;;;;;;53.68;6.55;100759.22;4745870;30;20450;-83
2022/08/12 09:41:44;;;;;;;3.65;3.35;;;;;;;53.19;6.76;100770.91;4733741;30;20467;-83
2022/08/12 09:46:58;;;;;;;6.78;4.07;;;;;;;51.87;6.65;100757.88;4748264;30;20761;-84
2022/08/12 09:49:24;;;;;;;4.53;3.28;;;;;;;52.18;7.15;100761.66;4754144;30;20100;-82
2022/08/12 09:51:50;;;;;;;4.22;3.30;;;;;;;52.77;6.89;100759.69;4752755;30;20048;-83
2022/08/12 09:54:16;;;;;;;5.50;4.15;;;;;;;52.76;6.58;100751.63;4755833;30;20052;-81
2022/08/12 09:56:44;;;;;;;7.30;3.30;;;;;;;52.20;6.72;100751.13;4772689;30;20048;-82
2022/08/12 09:59:10;;;;;;;4.75;3.13;;;;;;;52.16;7.36;100757.50;4770064;30;20497;-82
2022/08/12 10:01:38;;;;;;;4.38;3.00;;;;;;;52.80;6.71;100747.22;4769736;30;20114;-78
2022/08/12 10:04:10;;;;;;;4.10;3.13;;;;;;;53.19;6.41;100760.59;4755696;30;20486;-83
2022/08/12 10:06:44;;;;;;;4.03;3.20;;;;;;;53.49;6.47;100730.31;4738007;30;20051;-82
2022/08/12 10:09:12;;;;;;;4.25;3.13;;;;;;;53.70;6.28;100736.72;4769381;30;20048;-81
2022/08/12 10:14:23;;;;;;;4.63;3.50;;;;;;;52.99;6.47;100723.38;4756086;30;20584;-84
2022/08/12 10:16:49;;;;;;;5.90;2.88;;;;;;;51.83;7.31;100724.31;4771474;30;20132;-84
2022/08/12 10:19:17;;;;;;;4.75;3.10;;;;;;;51.78;6.81;100729.81;4754124;30;20075;-81
2022/08/12 10:21:44;;;;;;;7.30;3.33;;;;;;;50.95;7.32;100725.53;4738512;30;20043;-80
2022/08/12 10:24:18;;;;;;;4.50;3.10;;;;;;;49.59;7.57;100730.38;4745217;30;20489;-82
2022/08/12 10:29:43;;;;;;;4.40;2.72;;;;;;;49.29;8.26;100732.34;4746352;30;20075;-82
2022/08/12 10:32:20;;;;;;;3.58;2.70;;;;;;;49.77;7.63;100720.97;4743858;30;20091;-81
2022/08/12 10:34:47;;;;;;;4.85;2.83;;;;;;;50.36;7.71;100707.69;4750786;30;20131;-80
2022/08/12 10:37:17;;;;;;;3.05;2.75;;;;;;;50.56;7.35;100688.56;4734227;30;20036;-80
2022/08/12 10:39:59;;;;;;;7.15;2.90;;;;;;;48.55;8.07;100673.31;4774142;30;20576;-82
2022/08/12 10:45:54;;;;;;;6.57;3.15;;;;;;;43.78;11.01;100684.03;4745555;30;20079;-79
2022/08/12 10:49:00;;;;;;;6.05;2.97;;;;;;;41.36;12.22;100653.78;4735923;30;20506;-79
2022/08/12 10:53:07;;;;;;;5.03;2.90;;;;;;;39.50;13.40;100645.66;4734046;30;20513;-79
2022/08/12 10:56:39;;;;;;;4.93;2.70;;;;;;;38.52;14.31;100662.38;4747974;30;20051;-81
2022/08/12 10:59:06;;;;;;;4.47;2.70;;;;;;;38.12;15.17;100693.06;4761934;30;20060;-81
2022/08/12 11:01:55;;;;;;;5.15;3.00;;;;;;;37.46;15.53;100682.25;4731456;30;20052;-80
2022/08/12 11:05:18;;;;;;;7.72;2.97;;;;;;;36.62;16.66;100691.16;4725186;30;20052;-80
2022/08/12 11:08:26;;;;;;;6.40;3.03;;;;;;;35.48;16.82;100614.47;4745051;30;20047;-81
2022/08/12 11:11:58;;;;;;;4.43;2.80;;;;;;;34.72;17.79;100629.22;4720380;30;20421;-80
2022/08/12 11:15:39;;;;;;;6.40;2.92;;;;;;;34.22;18.48;100634.84;4726036;30;20056;-81
2022/08/12 11:19:42;;;;;;;3.38;3.03;;;;;;;33.35;19.27;100598.91;4712081;30;20640;-80
2022/08/12 11:23:01;;;;;;;3.47;3.00;;;;;;;33.34;19.42;100670.88;4651233;30;20048;-80
2022/08/12 11:26:31;;;;;;;7.35;3.30;;;;;;;32.79;20.15;100612.06;4712485;30;20072;-78
2022/08/12 11:29:24;;;;;;;6.30;3.22;;;;;;;32.54;20.17;100608.03;4716523;30;20041;-81
2022/08/12 11:31:52;;;;;;;5.45;3.50;;;;;;;32.83;20.94;100682.69;4711345;30;20052;-83
2022/08/12 11:34:20;;;;;;;3.75;3.40;;;;;;;32.45;21.31;100626.72;4719327;30;20056;-80
2022/08/12 11:37:01;;;;;;;6.47;3.55;;;;;;;32.34;21.22;100648.31;4726675;30;20057;-78
2022/08/12 11:39:33;;;;;;;6.55;3.47;;;;;;;31.57;21.69;100585.81;4722482;30;20049;-81
2022/08/12 11:42:02;;;;;;;5.10;3.55;;;;;;;31.74;22.41;100681.25;4725969;30;20157;-79
2022/08/12 11:44:28;;;;;;;4.65;3.22;;;;;;;31.36;22.75;100670.00;4710756;30;20174;-80
2022/08/12 11:46:56;;;;;;;3.90;3.05;;;;;;;30.86;22.70;100624.81;4744805;30;20044;-81
2022/08/12 11:49:28;;;;;;;5.45;3.00;;;;;;;30.81;23.11;100627.03;4764153;30;20641;-78
2022/08/12 11:51:55;;;;;;;4.97;3.00;;;;;;;30.49;23.46;100566.03;4765819;30;20047;-79
2022/08/12 11:54:30;;;;;;;3.20;2.90;;;;;;;30.66;22.98;100604.97;4721959;30;20046;-81
2022/08/12 11:57:06;;;;;;;7.05;3.05;;;;;;;30.45;23.88;100567.25;4747762;30;20047;-81
2022/08/12 11:59:32;;;;;;;4.53;3.13;;;;;;;30.82;23.62;100638.63;4733165;30;20048;-81
2022/08/12 12:02:05;;;;;;;4.10;2.95;;;;;;;30.72;23.72;100631.31;4743421;30;20090;-80
2022/08/12 12:04:31;;;;;;;5.05;3.30;;;;;;;30.65;24.02;100622.91;4761299;30;20099;-82
2022/08/12 12:06:58;;;;;;;5.22;3.33;;;;;;;30.70;24.21;100635.97;4730548;30;20052;-82
2022/08/12 12:09:27;;;;;;;5.88;3.60;;;;;;;30.42;24.24;100605.09;4744804;30;20043;-80
2022/08/12 12:11:53;;;;;;;7.35;3.30;;;;;;;30.58;24.39;100631.59;4746552;30;20063;-81
2022/08/12 12:14:19;;;;;;;6.65;3.40;;;;;;;30.47;24.34;100633.25;4759091;30;20054;-79
2022/08/12 12:16:46;;;;;;;8.98;3.72;;;;;;;30.30;24.53;100628.38;4766299;30;20081;-79
2022/08/12 12:19:11;;;;;;;5.82;3.38;;;;;;;29.80;24.79;100588.44;4746070;30;20058;-80
2022/08/12 12:21:38;;;;;;;8.13;3.50;;;;;;;29.70;24.97;100594.50;4745082;30;20048;-79
2022/08/12 12:24:05;;;;;;;4.85;3.40;;;;;;;29.62;25.16;100615.72;4744609;30;20097;-80
2022/08/12 12:26:31;;;;;;;5.80;3.47;;;;;;;29.34;25.62;100608.91;4731686;30;20245;-80
2022/08/12 12:29:00;;;;;;;5.00;3.60;;;;;;;29.39;25.59;100617.44;4748321;30;20043;-79
2022/08/12 12:31:46;;;;;;;;;;;;;;;;;;;;;
2022/08/12 12:34:41;;;;;;;5.40;3.72;;;;;;;29.34;25.50;100622.31;4727969;30;20197;-79
2022/08/12 12:37:11;;;;;;;7.50;3.53;;;;;;;29.27;25.92;100622.75;4750406;30;20051;-79
2022/08/12 12:39:39;;;;;;;6.53;3.70;;;;;;;29.05;26.02;100610.09;4750912;30;20112;-78
2022/08/12 12:42:06;;;;;;;5.38;3.05;;;;;;;29.05;26.36;100626.16;4767006;30;20055;-79
2022/08/12 12:44:32;;;;;;;9.38;3.95;;;;;;;28.99;26.39;100615.91;4769011;30;20063;-78
2022/08/12 12:46:58;;;;;;;7.15;3.67;;;;;;;28.97;26.69;100607.97;4769986;30;20043;-78
2022/08/12 12:49:24;;;;;;;7.20;3.67;;;;;;;28.99;26.98;100621.28;4737136;30;20058;-81
2022/08/12 12:51:52;;;;;;;9.88;3.85;;;;;;;28.89;26.85;100607.72;4734184;30;20454;-80
2022/08/12 12:54:18;;;;;;;4.05;3.30;;;;;;;28.84;27.21;100608.03;4732473;30;20044;-78
2022/08/12 12:56:48;;;;;;;5.13;3.38;;;;;;;28.82;27.21;100615.31;4727126;30;20104;-79
2022/08/12 12:59:22;;;;;;;4.70;3.58;;;;;;;28.69;27.15;100615.31;4756696;30;20048;-80
2022/08/12 13:01:48;;;;;;;4.93;3.45;;;;;;;28.63;27.35;100629.19;4760026;30;20091;-77
2022/08/12 13:04:15;;;;;;;8.52;4.40;;;;;;;28.49;27.33;100615.91;4743472;30;20070;-79
2022/08/12 13:06:41;;;;;;;11.13;3.78;;;;;;;28.36;27.66;100605.22;4758924;30;20132;-80
2022/08/12 13:09:08;;;;;;;4.97;3.70;;;;;;;28.32;27.84;100606.44;4744820;30;20755;-78
2022/08/12 13:11:36;;;;;;;6.20;3.63;;;;;;;28.25;27.77;100603.31;4743102;30;20085;-78
2022/08/12 13:14:02;;;;;;;6.22;3.40;;;;;;;28.17;27.56;100600.34;4729149;30;20048;-79
2022/08/12 13:16:29;;;;;;;7.15;2.95;;;;;;;28.28;28.00;100615.63;4732467;30;20109;-76
2022/08/12 13:18:55;;;;;;;6.68;3.40;;;;;;;28.11;28.05;100604.31;4761031;30;20484;-78
2022/08/12 13:21:22;;;;;;;8.30;3.28;;;;;;;28.11;28.23;100601.66;4758693;30;20081;-78
2022/08/12 13:23:54;;;;;;;7.25;3.63;;;;;;;28.02;28.31;100592.41;4745346;30;20047;-77
2022/08/12 13:26:21;;;;;;;6.78;3.10;;;;;;;28.11;28.32;100604.31;4764267;30;20079;-80
2022/08/12 13:28:52;;;;;;;5.50;3.42;;;;;;;28.06;27.88;100598.41;4762194;30;20427;-78
2022/08/12 13:31:20;;;;;;;4.72;3.00;;;;;;;27.95;27.88;100591.97;4746731;30;20571;-77
2022/08/12 13:33:50;;;;;;;4.28;3.20;;;;;;;27.98;28.29;100603.41;4764008;30;20048;-79
2022/08/12 13:36:19;;;;;;;3.33;3.03;;;;;;;27.90;28.48;100601.28;4746288;30;20048;-80
2022/08/12 13:38:50;;;;;;;5.05;3.83;;;;;;;27.84;28.76;100599.03;4764750;30;20058;-79
2022/08/12 13:41:32;;;;;;;4.60;3.42;;;;;;;27.83;28.99;100603.53;4746447;30;20043;-79
2022/08/12 13:43:59;;;;;;;4.53;3.00;;;;;;;27.72;28.83;100598.91;4762721;30;20062;-78